sensor_id;sensor_type;location;lat;lon;timestamp;P1;durP1;ratioP1;P2;durP2;ratioP2
4096;SDS011;2062;50.694;7.246;2023-12-22T00:00:15;6.38;;;0.95;;
4096;SDS011;2062;50.694;7.246;2023-12-22T00:02:42;8.30;;;1.10;;
4096;SDS011;2062;50.694;7.246;2023-12-22T00:05:09;8.37;;;0.90;;
4096;SDS011;2062;50.694;7.246;2023-12-22T00:07:37;8.50;;;1.10;;
4096;SDS011;2062;50.694;7.246;2023-12-22T00:10:04;8.00;;;1.08;;
4096;SDS011;2062;50.694;7.246;2023-12-22T00:12:31;7.00;;;0.98;;
4096;SDS011;2062;50.694;7.246;2023-12-22T00:14:58;9.55;;;1.42;;
4096;SDS011;2062;50.694;7.246;2023-12-22T00:17:25;7.03;;;1.37;;
4096;SDS011;2062;50.694;7.246;2023-12-22T00:19:52;8.50;;;1.20;;
4096;SDS011;2062;50.694;7.246;2023-12-22T00:22:20;6.32;;;0.80;;
4096;SDS011;2062;50.694;7.246;2023-12-22T00:24:48;6.88;;;0.90;;
4096;SDS011;2062;50.694;7.246;2023-12-22T00:27:15;4.55;;;0.52;;
4096;SDS011;2062;50.694;7.246;2023-12-22T00:29:42;4.70;;;0.33;;
4096;SDS011;2062;50.694;7.246;2023-12-22T00:32:08;2.53;;;0.30;;
4096;SDS011;2062;50.694;7.246;2023-12-22T00:34:35;5.97;;;0.40;;
4096;SDS011;2062;50.694;7.246;2023-12-22T00:37:02;2.00;;;0.30;;
4096;SDS011;2062;50.694;7.246;2023-12-22T00:39:30;3.33;;;0.68;;
4096;SDS011;2062;50.694;7.246;2023-12-22T00:41:58;6.20;;;0.93;;
4096;SDS011;2062;50.694;7.246;2023-12-22T00:44:26;4.45;;;0.43;;
4096;SDS011;2062;50.694;7.246;2023-12-22T00:46:54;3.85;;;0.47;;
4096;SDS011;2062;50.694;7.246;2023-12-22T00:49:21;6.88;;;0.60;;
4096;SDS011;2062;50.694;7.246;2023-12-22T00:51:48;5.30;;;0.60;;
4096;SDS011;2062;50.694;7.246;2023-12-22T00:54:15;8.40;;;0.63;;
4096;SDS011;2062;50.694;7.246;2023-12-22T00:56:41;3.47;;;0.50;;
4096;SDS011;2062;50.694;7.246;2023-12-22T00:59:09;4.10;;;0.40;;
4096;SDS011;2062;50.694;7.246;2023-12-22T01:01:36;5.07;;;0.80;;
4096;SDS011;2062;50.694;7.246;2023-12-22T01:04:03;5.90;;;0.63;;
4096;SDS011;2062;50.694;7.246;2023-12-22T01:06:30;4.80;;;0.60;;
4096;SDS011;2062;50.694;7.246;2023-12-22T01:08:57;4.32;;;0.60;;
4096;SDS011;2062;50.694;7.246;2023-12-22T01:11:23;6.40;;;0.55;;
4096;SDS011;2062;50.694;7.246;2023-12-22T01:13:50;3.70;;;0.60;;
4096;SDS011;2062;50.694;7.246;2023-12-22T01:16:18;5.88;;;0.80;;
4096;SDS011;2062;50.694;7.246;2023-12-22T01:18:47;7.63;;;0.70;;
4096;SDS011;2062;50.694;7.246;2023-12-22T01:21:14;8.23;;;1.00;;
4096;SDS011;2062;50.694;7.246;2023-12-22T01:23:40;5.78;;;0.68;;
4096;SDS011;2062;50.694;7.246;2023-12-22T01:26:07;9.43;;;1.00;;
4096;SDS011;2062;50.694;7.246;2023-12-22T01:28:33;4.00;;;0.80;;
4096;SDS011;2062;50.694;7.246;2023-12-22T01:31:00;6.85;;;0.82;;
4096;SDS011;2062;50.694;7.246;2023-12-22T01:33:28;7.45;;;0.90;;
4096;SDS011;2062;50.694;7.246;2023-12-22T01:35:55;7.80;;;1.10;;
4096;SDS011;2062;50.694;7.246;2023-12-22T01:38:22;6.13;;;1.23;;
4096;SDS011;2062;50.694;7.246;2023-12-22T01:40:49;6.77;;;1.17;;
4096;SDS011;2062;50.694;7.246;2023-12-22T01:43:15;6.57;;;1.30;;
4096;SDS011;2062;50.694;7.246;2023-12-22T01:45:46;6.25;;;1.33;;
4096;SDS011;2062;50.694;7.246;2023-12-22T01:48:13;7.65;;;1.48;;
4096;SDS011;2062;50.694;7.246;2023-12-22T01:50:42;10.23;;;1.50;;
4096;SDS011;2062;50.694;7.246;2023-12-22T01:53:09;7.93;;;1.27;;
4096;SDS011;2062;50.694;7.246;2023-12-22T01:55:36;12.27;;;1.30;;
4096;SDS011;2062;50.694;7.246;2023-12-22T01:58:03;9.20;;;1.50;;
4096;SDS011;2062;50.694;7.246;2023-12-22T02:00:30;8.63;;;1.27;;
4096;SDS011;2062;50.694;7.246;2023-12-22T02:02:57;7.47;;;1.65;;
4096;SDS011;2062;50.694;7.246;2023-12-22T02:05:24;5.03;;;1.13;;
4096;SDS011;2062;50.694;7.246;2023-12-22T02:07:52;6.30;;;0.98;;
4096;SDS011;2062;50.694;7.246;2023-12-22T02:10:19;8.60;;;1.23;;
4096;SDS011;2062;50.694;7.246;2023-12-22T02:12:46;7.75;;;1.00;;
4096;SDS011;2062;50.694;7.246;2023-12-22T02:15:13;6.30;;;0.98;;
4096;SDS011;2062;50.694;7.246;2023-12-22T02:17:43;7.97;;;1.00;;
4096;SDS011;2062;50.694;7.246;2023-12-22T02:20:15;5.22;;;1.00;;
4096;SDS011;2062;50.694;7.246;2023-12-22T02:22:44;6.20;;;1.02;;
4096;SDS011;2062;50.694;7.246;2023-12-22T02:25:11;9.00;;;1.05;;
4096;SDS011;2062;50.694;7.246;2023-12-22T02:27:39;3.88;;;0.73;;
4096;SDS011;2062;50.694;7.246;2023-12-22T02:30:11;12.20;;;1.00;;
4096;SDS011;2062;50.694;7.246;2023-12-22T02:32:42;5.72;;;0.85;;
4096;SDS011;2062;50.694;7.246;2023-12-22T02:35:10;8.45;;;1.30;;
4096;SDS011;2062;50.694;7.246;2023-12-22T02:37:40;8.60;;;1.17;;
4096;SDS011;2062;50.694;7.246;2023-12-22T02:40:09;5.28;;;1.15;;
4096;SDS011;2062;50.694;7.246;2023-12-22T02:42:36;8.30;;;1.23;;
4096;SDS011;2062;50.694;7.246;2023-12-22T02:45:04;6.00;;;0.82;;
4096;SDS011;2062;50.694;7.246;2023-12-22T02:47:32;7.00;;;0.90;;
4096;SDS011;2062;50.694;7.246;2023-12-22T02:49:59;7.18;;;1.05;;
4096;SDS011;2062;50.694;7.246;2023-12-22T02:52:26;6.00;;;1.00;;
4096;SDS011;2062;50.694;7.246;2023-12-22T02:54:52;5.47;;;0.83;;
4096;SDS011;2062;50.694;7.246;2023-12-22T02:57:20;9.57;;;1.17;;
4096;SDS011;2062;50.694;7.246;2023-12-22T02:59:47;8.55;;;1.33;;
4096;SDS011;2062;50.694;7.246;2023-12-22T03:02:14;10.07;;;1.00;;
4096;SDS011;2062;50.694;7.246;2023-12-22T03:04:41;7.03;;;1.27;;
4096;SDS011;2062;50.694;7.246;2023-12-22T03:07:08;7.00;;;0.93;;
4096;SDS011;2062;50.694;7.246;2023-12-22T03:09:35;7.45;;;1.00;;
4096;SDS011;2062;50.694;7.246;2023-12-22T03:12:02;9.80;;;1.27;;
4096;SDS011;2062;50.694;7.246;2023-12-22T03:14:30;9.90;;;1.50;;
4096;SDS011;2062;50.694;7.246;2023-12-22T03:16:58;9.07;;;1.20;;
4096;SDS011;2062;50.694;7.246;2023-12-22T03:19:25;8.23;;;1.03;;
4096;SDS011;2062;50.694;7.246;2023-12-22T03:21:52;13.70;;;1.40;;
4096;SDS011;2062;50.694;7.246;2023-12-22T03:24:18;13.23;;;1.40;;
4096;SDS011;2062;50.694;7.246;2023-12-22T03:26:47;11.77;;;1.20;;
4096;SDS011;2062;50.694;7.246;2023-12-22T03:29:14;7.18;;;1.42;;
4096;SDS011;2062;50.694;7.246;2023-12-22T03:31:42;9.20;;;1.30;;
4096;SDS011;2062;50.694;7.246;2023-12-22T03:34:09;5.00;;;1.23;;
4096;SDS011;2062;50.694;7.246;2023-12-22T03:36:36;13.52;;;1.35;;
4096;SDS011;2062;50.694;7.246;2023-12-22T03:39:03;6.68;;;1.10;;
4096;SDS011;2062;50.694;7.246;2023-12-22T03:41:30;9.70;;;1.48;;
4096;SDS011;2062;50.694;7.246;2023-12-22T03:43:57;7.80;;;1.23;;
4096;SDS011;2062;50.694;7.246;2023-12-22T03:46:24;10.38;;;1.40;;
4096;SDS011;2062;50.694;7.246;2023-12-22T03:48:52;12.45;;;1.20;;
4096;SDS011;2062;50.694;7.246;2023-12-22T03:51:19;14.10;;;1.92;;
4096;SDS011;2062;50.694;7.246;2023-12-22T03:53:46;10.98;;;1.30;;
4096;SDS011;2062;50.694;7.246;2023-12-22T03:56:12;12.50;;;1.70;;
4096;SDS011;2062;50.694;7.246;2023-12-22T03:58:39;7.15;;;1.25;;
4096;SDS011;2062;50.694;7.246;2023-12-22T04:01:05;15.00;;;1.60;;
4096;SDS011;2062;50.694;7.246;2023-12-22T04:03:32;10.30;;;1.95;;
4096;SDS011;2062;50.694;7.246;2023-12-22T04:06:02;7.50;;;1.40;;
4096;SDS011;2062;50.694;7.246;2023-12-22T04:08:29;8.23;;;1.55;;
4096;SDS011;2062;50.694;7.246;2023-12-22T04:10:56;11.27;;;1.25;;
4096;SDS011;2062;50.694;7.246;2023-12-22T04:13:23;10.43;;;1.38;;
4096;SDS011;2062;50.694;7.246;2023-12-22T04:15:50;15.80;;;1.73;;
4096;SDS011;2062;50.694;7.246;2023-12-22T04:18:16;7.83;;;1.33;;
4096;SDS011;2062;50.694;7.246;2023-12-22T04:20:43;12.70;;;1.45;;
4096;SDS011;2062;50.694;7.246;2023-12-22T04:23:11;9.93;;;1.10;;
4096;SDS011;2062;50.694;7.246;2023-12-22T04:25:38;7.97;;;1.25;;
4096;SDS011;2062;50.694;7.246;2023-12-22T04:28:05;8.63;;;1.27;;
4096;SDS011;2062;50.694;7.246;2023-12-22T04:30:31;7.53;;;1.03;;
4096;SDS011;2062;50.694;7.246;2023-12-22T04:32:59;8.25;;;1.55;;
4096;SDS011;2062;50.694;7.246;2023-12-22T04:35:26;8.02;;;0.98;;
4096;SDS011;2062;50.694;7.246;2023-12-22T04:37:52;6.43;;;1.00;;
4096;SDS011;2062;50.694;7.246;2023-12-22T04:40:20;11.35;;;1.08;;
4096;SDS011;2062;50.694;7.246;2023-12-22T04:42:47;9.50;;;1.23;;
4096;SDS011;2062;50.694;7.246;2023-12-22T04:45:14;5.18;;;0.80;;
4096;SDS011;2062;50.694;7.246;2023-12-22T04:47:42;6.32;;;1.20;;
4096;SDS011;2062;50.694;7.246;2023-12-22T04:50:09;8.15;;;1.73;;
4096;SDS011;2062;50.694;7.246;2023-12-22T04:52:35;8.30;;;1.00;;
4096;SDS011;2062;50.694;7.246;2023-12-22T04:55:02;6.90;;;1.00;;
4096;SDS011;2062;50.694;7.246;2023-12-22T04:57:31;9.20;;;1.13;;
4096;SDS011;2062;50.694;7.246;2023-12-22T04:59:58;11.23;;;1.17;;
4096;SDS011;2062;50.694;7.246;2023-12-22T05:02:25;12.80;;;1.33;;
4096;SDS011;2062;50.694;7.246;2023-12-22T05:04:51;10.68;;;1.27;;
4096;SDS011;2062;50.694;7.246;2023-12-22T05:07:18;7.77;;;1.13;;
4096;SDS011;2062;50.694;7.246;2023-12-22T05:09:45;7.82;;;0.95;;
4096;SDS011;2062;50.694;7.246;2023-12-22T05:12:12;13.88;;;1.20;;
4096;SDS011;2062;50.694;7.246;2023-12-22T05:14:41;9.43;;;1.00;;
4096;SDS011;2062;50.694;7.246;2023-12-22T05:17:07;9.07;;;1.40;;
4096;SDS011;2062;50.694;7.246;2023-12-22T05:19:35;8.40;;;1.03;;
4096;SDS011;2062;50.694;7.246;2023-12-22T05:22:03;9.63;;;1.73;;
4096;SDS011;2062;50.694;7.246;2023-12-22T05:24:30;12.88;;;1.40;;
4096;SDS011;2062;50.694;7.246;2023-12-22T05:26:56;9.80;;;1.35;;
4096;SDS011;2062;50.694;7.246;2023-12-22T05:29:23;8.80;;;1.40;;
4096;SDS011;2062;50.694;7.246;2023-12-22T05:31:51;12.53;;;1.53;;
4096;SDS011;2062;50.694;7.246;2023-12-22T05:34:18;7.93;;;1.40;;
4096;SDS011;2062;50.694;7.246;2023-12-22T05:36:45;13.80;;;1.50;;
4096;SDS011;2062;50.694;7.246;2023-12-22T05:39:11;13.65;;;1.52;;
4096;SDS011;2062;50.694;7.246;2023-12-22T05:41:38;9.60;;;1.38;;
4096;SDS011;2062;50.694;7.246;2023-12-22T05:44:05;14.83;;;1.77;;
4096;SDS011;2062;50.694;7.246;2023-12-22T05:46:35;13.90;;;1.65;;
4096;SDS011;2062;50.694;7.246;2023-12-22T05:49:03;11.40;;;1.90;;
4096;SDS011;2062;50.694;7.246;2023-12-22T05:51:35;12.10;;;1.60;;
4096;SDS011;2062;50.694;7.246;2023-12-22T05:54:03;11.73;;;1.88;;
4096;SDS011;2062;50.694;7.246;2023-12-22T05:56:30;11.50;;;1.60;;
4096;SDS011;2062;50.694;7.246;2023-12-22T05:58:57;13.20;;;1.83;;
4096;SDS011;2062;50.694;7.246;2023-12-22T06:01:24;15.32;;;1.73;;
4096;SDS011;2062;50.694;7.246;2023-12-22T06:03:52;14.80;;;1.67;;
4096;SDS011;2062;50.694;7.246;2023-12-22T06:06:20;13.00;;;1.25;;
4096;SDS011;2062;50.694;7.246;2023-12-22T06:08:47;11.63;;;1.53;;
4096;SDS011;2062;50.694;7.246;2023-12-22T06:11:14;14.38;;;1.83;;
4096;SDS011;2062;50.694;7.246;2023-12-22T06:13:41;11.10;;;1.27;;
4096;SDS011;2062;50.694;7.246;2023-12-22T06:16:10;11.63;;;1.05;;
4096;SDS011;2062;50.694;7.246;2023-12-22T06:18:38;14.57;;;1.65;;
4096;SDS011;2062;50.694;7.246;2023-12-22T06:21:04;9.30;;;1.33;;
4096;SDS011;2062;50.694;7.246;2023-12-22T06:23:33;10.55;;;1.50;;
4096;SDS011;2062;50.694;7.246;2023-12-22T06:25:59;15.65;;;1.45;;
4096;SDS011;2062;50.694;7.246;2023-12-22T06:28:27;9.25;;;1.40;;
4096;SDS011;2062;50.694;7.246;2023-12-22T06:30:54;8.50;;;1.15;;
4096;SDS011;2062;50.694;7.246;2023-12-22T06:33:20;8.20;;;1.40;;
4096;SDS011;2062;50.694;7.246;2023-12-22T06:35:47;17.20;;;1.60;;
4096;SDS011;2062;50.694;7.246;2023-12-22T06:38:18;16.25;;;1.63;;
4096;SDS011;2062;50.694;7.246;2023-12-22T06:40:46;9.70;;;1.25;;
4096;SDS011;2062;50.694;7.246;2023-12-22T06:43:13;9.90;;;1.50;;
4096;SDS011;2062;50.694;7.246;2023-12-22T06:45:40;9.93;;;1.30;;
4096;SDS011;2062;50.694;7.246;2023-12-22T06:48:07;13.27;;;1.80;;
4096;SDS011;2062;50.694;7.246;2023-12-22T06:50:34;13.20;;;1.90;;
4096;SDS011;2062;50.694;7.246;2023-12-22T06:53:04;12.93;;;1.83;;
4096;SDS011;2062;50.694;7.246;2023-12-22T06:55:32;18.42;;;2.03;;
4096;SDS011;2062;50.694;7.246;2023-12-22T06:58:01;14.27;;;2.20;;
4096;SDS011;2062;50.694;7.246;2023-12-22T07:00:27;17.13;;;2.42;;
4096;SDS011;2062;50.694;7.246;2023-12-22T07:02:54;9.70;;;1.90;;
4096;SDS011;2062;50.694;7.246;2023-12-22T07:05:31;13.48;;;1.83;;
4096;SDS011;2062;50.694;7.246;2023-12-22T07:08:01;10.10;;;1.25;;
4096;SDS011;2062;50.694;7.246;2023-12-22T07:10:31;8.13;;;1.30;;
4096;SDS011;2062;50.694;7.246;2023-12-22T07:12:58;6.57;;;1.20;;
4096;SDS011;2062;50.694;7.246;2023-12-22T07:15:26;10.93;;;1.65;;
4096;SDS011;2062;50.694;7.246;2023-12-22T07:17:53;8.32;;;1.45;;
4096;SDS011;2062;50.694;7.246;2023-12-22T07:20:21;8.45;;;1.48;;
4096;SDS011;2062;50.694;7.246;2023-12-22T07:22:48;12.37;;;1.20;;
4096;SDS011;2062;50.694;7.246;2023-12-22T07:25:16;10.50;;;1.20;;
4096;SDS011;2062;50.694;7.246;2023-12-22T07:27:44;8.35;;;1.20;;
4096;SDS011;2062;50.694;7.246;2023-12-22T07:30:11;10.27;;;1.30;;
4096;SDS011;2062;50.694;7.246;2023-12-22T07:32:42;7.50;;;1.25;;
4096;SDS011;2062;50.694;7.246;2023-12-22T07:35:10;9.40;;;1.10;;
4096;SDS011;2062;50.694;7.246;2023-12-22T07:37:36;7.90;;;1.20;;
4096;SDS011;2062;50.694;7.246;2023-12-22T07:40:04;8.90;;;1.20;;
4096;SDS011;2062;50.694;7.246;2023-12-22T07:42:32;12.30;;;1.42;;
4096;SDS011;2062;50.694;7.246;2023-12-22T07:44:59;10.85;;;1.52;;
4096;SDS011;2062;50.694;7.246;2023-12-22T07:47:25;6.07;;;1.40;;
4096;SDS011;2062;50.694;7.246;2023-12-22T07:49:54;6.60;;;1.02;;
4096;SDS011;2062;50.694;7.246;2023-12-22T07:52:20;13.70;;;1.40;;
4096;SDS011;2062;50.694;7.246;2023-12-22T07:54:47;10.85;;;1.60;;
4096;SDS011;2062;50.694;7.246;2023-12-22T07:57:14;9.63;;;1.13;;
4096;SDS011;2062;50.694;7.246;2023-12-22T07:59:41;12.03;;;1.70;;
4096;SDS011;2062;50.694;7.246;2023-12-22T08:02:07;6.60;;;1.40;;
4096;SDS011;2062;50.694;7.246;2023-12-22T08:04:34;14.20;;;1.80;;
4096;SDS011;2062;50.694;7.246;2023-12-22T08:07:02;11.05;;;1.50;;
4096;SDS011;2062;50.694;7.246;2023-12-22T08:09:29;10.20;;;1.50;;
4096;SDS011;2062;50.694;7.246;2023-12-22T08:11:56;9.80;;;1.67;;
4096;SDS011;2062;50.694;7.246;2023-12-22T08:14:23;13.10;;;1.85;;
4096;SDS011;2062;50.694;7.246;2023-12-22T08:16:50;16.30;;;2.25;;
4096;SDS011;2062;50.694;7.246;2023-12-22T08:19:17;14.55;;;2.00;;
4096;SDS011;2062;50.694;7.246;2023-12-22T08:21:45;10.80;;;1.98;;
4096;SDS011;2062;50.694;7.246;2023-12-22T08:24:14;12.73;;;2.00;;
4096;SDS011;2062;50.694;7.246;2023-12-22T08:26:40;11.48;;;1.80;;
4096;SDS011;2062;50.694;7.246;2023-12-22T08:29:07;18.60;;;2.63;;
4096;SDS011;2062;50.694;7.246;2023-12-22T08:31:34;20.77;;;2.40;;
4096;SDS011;2062;50.694;7.246;2023-12-22T08:34:01;18.60;;;2.65;;
4096;SDS011;2062;50.694;7.246;2023-12-22T08:36:27;16.13;;;2.60;;
4096;SDS011;2062;50.694;7.246;2023-12-22T08:38:54;14.63;;;2.20;;
4096;SDS011;2062;50.694;7.246;2023-12-22T08:41:22;18.17;;;2.42;;
4096;SDS011;2062;50.694;7.246;2023-12-22T08:43:49;15.43;;;2.08;;
4096;SDS011;2062;50.694;7.246;2023-12-22T08:46:16;19.38;;;2.63;;
4096;SDS011;2062;50.694;7.246;2023-12-22T08:48:43;18.70;;;2.50;;
4096;SDS011;2062;50.694;7.246;2023-12-22T08:51:10;13.27;;;2.30;;
4096;SDS011;2062;50.694;7.246;2023-12-22T08:53:37;13.77;;;1.90;;
4096;SDS011;2062;50.694;7.246;2023-12-22T08:56:05;12.77;;;2.10;;
4096;SDS011;2062;50.694;7.246;2023-12-22T08:58:33;14.60;;;2.42;;
4096;SDS011;2062;50.694;7.246;2023-12-22T09:01:01;14.40;;;2.20;;
4096;SDS011;2062;50.694;7.246;2023-12-22T09:03:28;13.35;;;2.30;;
4096;SDS011;2062;50.694;7.246;2023-12-22T09:05:56;15.25;;;1.90;;
4096;SDS011;2062;50.694;7.246;2023-12-22T09:08:22;12.73;;;2.08;;
4096;SDS011;2062;50.694;7.246;2023-12-22T09:10:49;16.17;;;2.47;;
4096;SDS011;2062;50.694;7.246;2023-12-22T09:13:16;12.30;;;2.13;;
4096;SDS011;2062;50.694;7.246;2023-12-22T09:15:47;11.23;;;2.28;;
4096;SDS011;2062;50.694;7.246;2023-12-22T09:18:14;17.38;;;2.40;;
4096;SDS011;2062;50.694;7.246;2023-12-22T09:20:40;15.13;;;2.47;;
4096;SDS011;2062;50.694;7.246;2023-12-22T09:23:07;13.32;;;2.22;;
4096;SDS011;2062;50.694;7.246;2023-12-22T09:25:35;15.33;;;2.37;;
4096;SDS011;2062;50.694;7.246;2023-12-22T09:28:02;13.82;;;2.70;;
4096;SDS011;2062;50.694;7.246;2023-12-22T09:30:29;13.70;;;2.47;;
4096;SDS011;2062;50.694;7.246;2023-12-22T09:32:58;13.35;;;1.95;;
4096;SDS011;2062;50.694;7.246;2023-12-22T09:35:24;11.07;;;2.25;;
4096;SDS011;2062;50.694;7.246;2023-12-22T09:37:51;16.53;;;2.50;;
4096;SDS011;2062;50.694;7.246;2023-12-22T09:40:19;12.27;;;2.40;;
4096;SDS011;2062;50.694;7.246;2023-12-22T09:42:47;16.42;;;2.53;;
4096;SDS011;2062;50.694;7.246;2023-12-22T09:45:14;9.88;;;1.88;;
4096;SDS011;2062;50.694;7.246;2023-12-22T09:47:44;11.90;;;2.22;;
4096;SDS011;2062;50.694;7.246;2023-12-22T09:50:13;16.70;;;2.63;;
4096;SDS011;2062;50.694;7.246;2023-12-22T09:52:40;13.27;;;2.28;;
4096;SDS011;2062;50.694;7.246;2023-12-22T09:55:09;12.77;;;2.20;;
4096;SDS011;2062;50.694;7.246;2023-12-22T09:57:36;11.75;;;2.28;;
4096;SDS011;2062;50.694;7.246;2023-12-22T10:00:05;10.52;;;2.08;;
4096;SDS011;2062;50.694;7.246;2023-12-22T10:02:34;11.23;;;2.20;;
4096;SDS011;2062;50.694;7.246;2023-12-22T10:05:03;12.40;;;1.63;;
4096;SDS011;2062;50.694;7.246;2023-12-22T10:07:31;10.45;;;1.60;;
4096;SDS011;2062;50.694;7.246;2023-12-22T10:09:58;8.95;;;1.58;;
4096;SDS011;2062;50.694;7.246;2023-12-22T10:12:26;11.77;;;1.70;;
4096;SDS011;2062;50.694;7.246;2023-12-22T10:14:55;12.47;;;1.90;;
4096;SDS011;2062;50.694;7.246;2023-12-22T10:17:23;7.80;;;1.55;;
4096;SDS011;2062;50.694;7.246;2023-12-22T10:19:51;9.82;;;1.98;;
4096;SDS011;2062;50.694;7.246;2023-12-22T10:22:17;11.52;;;1.70;;
4096;SDS011;2062;50.694;7.246;2023-12-22T10:24:47;7.68;;;1.80;;
4096;SDS011;2062;50.694;7.246;2023-12-22T10:27:16;10.10;;;1.30;;
4096;SDS011;2062;50.694;7.246;2023-12-22T10:29:47;4.43;;;1.00;;
4096;SDS011;2062;50.694;7.246;2023-12-22T10:32:14;5.20;;;1.10;;
4096;SDS011;2062;50.694;7.246;2023-12-22T10:34:41;6.80;;;0.93;;
4096;SDS011;2062;50.694;7.246;2023-12-22T10:37:09;9.57;;;1.00;;
4096;SDS011;2062;50.694;7.246;2023-12-22T10:39:36;4.80;;;0.93;;
4096;SDS011;2062;50.694;7.246;2023-12-22T10:42:04;5.05;;;0.93;;
4096;SDS011;2062;50.694;7.246;2023-12-22T10:44:32;5.30;;;1.10;;
4096;SDS011;2062;50.694;7.246;2023-12-22T10:47:00;4.97;;;1.13;;
4096;SDS011;2062;50.694;7.246;2023-12-22T10:49:27;3.47;;;0.82;;
4096;SDS011;2062;50.694;7.246;2023-12-22T10:51:54;4.10;;;0.90;;
4096;SDS011;2062;50.694;7.246;2023-12-22T10:54:21;5.35;;;0.80;;
4096;SDS011;2062;50.694;7.246;2023-12-22T10:56:48;5.05;;;0.80;;
4096;SDS011;2062;50.694;7.246;2023-12-22T10:59:17;6.43;;;1.20;;
4096;SDS011;2062;50.694;7.246;2023-12-22T11:01:45;4.43;;;0.90;;
4096;SDS011;2062;50.694;7.246;2023-12-22T11:04:17;5.07;;;1.03;;
4096;SDS011;2062;50.694;7.246;2023-12-22T11:06:47;4.93;;;0.98;;
4096;SDS011;2062;50.694;7.246;2023-12-22T11:09:17;4.43;;;0.80;;
4096;SDS011;2062;50.694;7.246;2023-12-22T11:11:47;4.82;;;1.15;;
4096;SDS011;2062;50.694;7.246;2023-12-22T11:14:15;4.30;;;0.60;;
4096;SDS011;2062;50.694;7.246;2023-12-22T11:16:45;4.97;;;0.90;;
4096;SDS011;2062;50.694;7.246;2023-12-22T11:19:13;5.80;;;0.80;;
4096;SDS011;2062;50.694;7.246;2023-12-22T11:21:40;5.70;;;0.90;;
4096;SDS011;2062;50.694;7.246;2023-12-22T11:24:08;4.45;;;0.95;;
4096;SDS011;2062;50.694;7.246;2023-12-22T11:26:39;4.00;;;1.02;;
4096;SDS011;2062;50.694;7.246;2023-12-22T11:29:08;4.03;;;1.10;;
4096;SDS011;2062;50.694;7.246;2023-12-22T11:31:37;3.83;;;1.17;;
4096;SDS011;2062;50.694;7.246;2023-12-22T11:34:06;4.65;;;1.30;;
4096;SDS011;2062;50.694;7.246;2023-12-22T11:36:33;6.40;;;1.38;;
4096;SDS011;2062;50.694;7.246;2023-12-22T11:39:01;5.28;;;1.15;;
4096;SDS011;2062;50.694;7.246;2023-12-22T11:41:30;5.38;;;1.27;;
4096;SDS011;2062;50.694;7.246;2023-12-22T11:44:00;5.03;;;1.30;;
4096;SDS011;2062;50.694;7.246;2023-12-22T11:46:30;4.93;;;1.40;;
4096;SDS011;2062;50.694;7.246;2023-12-22T11:49:00;8.80;;;1.40;;
4096;SDS011;2062;50.694;7.246;2023-12-22T11:51:30;6.63;;;1.50;;
4096;SDS011;2062;50.694;7.246;2023-12-22T11:53:59;6.75;;;1.42;;
4096;SDS011;2062;50.694;7.246;2023-12-22T11:56:26;4.97;;;1.40;;
4096;SDS011;2062;50.694;7.246;2023-12-22T11:58:55;5.80;;;1.48;;
4096;SDS011;2062;50.694;7.246;2023-12-22T12:01:24;5.65;;;1.55;;
4096;SDS011;2062;50.694;7.246;2023-12-22T12:03:54;5.93;;;1.38;;
4096;SDS011;2062;50.694;7.246;2023-12-22T12:06:32;6.25;;;1.42;;
4096;SDS011;2062;50.694;7.246;2023-12-22T12:09:03;4.90;;;1.40;;
4096;SDS011;2062;50.694;7.246;2023-12-22T12:14:40;7.75;;;2.00;;
4096;SDS011;2062;50.694;7.246;2023-12-22T12:17:09;7.03;;;1.55;;
4096;SDS011;2062;50.694;7.246;2023-12-22T12:19:37;6.03;;;1.50;;
4096;SDS011;2062;50.694;7.246;2023-12-22T12:22:08;5.60;;;1.30;;
4096;SDS011;2062;50.694;7.246;2023-12-22T12:24:35;3.97;;;1.10;;
4096;SDS011;2062;50.694;7.246;2023-12-22T12:27:03;4.28;;;1.23;;
4096;SDS011;2062;50.694;7.246;2023-12-22T12:29:30;5.15;;;1.10;;
4096;SDS011;2062;50.694;7.246;2023-12-22T12:32:02;6.65;;;1.42;;
4096;SDS011;2062;50.694;7.246;2023-12-22T12:34:30;5.57;;;1.47;;
4096;SDS011;2062;50.694;7.246;2023-12-22T12:36:57;5.05;;;1.50;;
4096;SDS011;2062;50.694;7.246;2023-12-22T12:39:26;3.78;;;1.20;;
4096;SDS011;2062;50.694;7.246;2023-12-22T12:41:57;4.15;;;1.10;;
4096;SDS011;2062;50.694;7.246;2023-12-22T12:44:26;4.50;;;1.45;;
4096;SDS011;2062;50.694;7.246;2023-12-22T12:46:53;4.37;;;1.23;;
4096;SDS011;2062;50.694;7.246;2023-12-22T12:49:20;6.07;;;1.33;;
4096;SDS011;2062;50.694;7.246;2023-12-22T12:51:51;5.90;;;1.40;;
4096;SDS011;2062;50.694;7.246;2023-12-22T12:54:19;6.97;;;1.50;;
4096;SDS011;2062;50.694;7.246;2023-12-22T12:56:47;5.00;;;1.70;;
4096;SDS011;2062;50.694;7.246;2023-12-22T12:59:15;5.20;;;1.30;;
4096;SDS011;2062;50.694;7.246;2023-12-22T13:01:43;6.72;;;1.55;;
4096;SDS011;2062;50.694;7.246;2023-12-22T13:04:11;4.80;;;1.77;;
4096;SDS011;2062;50.694;7.246;2023-12-22T13:06:42;6.22;;;1.70;;
4096;SDS011;2062;50.694;7.246;2023-12-22T13:09:09;5.30;;;1.63;;
4096;SDS011;2062;50.694;7.246;2023-12-22T13:11:38;6.20;;;1.70;;
4096;SDS011;2062;50.694;7.246;2023-12-22T13:14:08;5.30;;;1.58;;
4096;SDS011;2062;50.694;7.246;2023-12-22T13:16:35;6.45;;;1.70;;
4096;SDS011;2062;50.694;7.246;2023-12-22T13:19:02;5.85;;;1.73;;
4096;SDS011;2062;50.694;7.246;2023-12-22T13:21:30;4.35;;;1.30;;
4096;SDS011;2062;50.694;7.246;2023-12-22T13:24:10;5.30;;;1.47;;
4096;SDS011;2062;50.694;7.246;2023-12-22T13:26:38;6.80;;;1.60;;
4096;SDS011;2062;50.694;7.246;2023-12-22T13:29:05;5.10;;;1.40;;
4096;SDS011;2062;50.694;7.246;2023-12-22T13:31:36;6.35;;;1.55;;
4096;SDS011;2062;50.694;7.246;2023-12-22T13:34:07;4.00;;;1.38;;
4096;SDS011;2062;50.694;7.246;2023-12-22T13:36:35;9.10;;;1.40;;
4096;SDS011;2062;50.694;7.246;2023-12-22T13:39:02;4.05;;;1.50;;
4096;SDS011;2062;50.694;7.246;2023-12-22T13:41:31;4.07;;;1.60;;
4096;SDS011;2062;50.694;7.246;2023-12-22T13:44:01;7.53;;;1.83;;
4096;SDS011;2062;50.694;7.246;2023-12-22T13:46:29;5.60;;;1.92;;
4096;SDS011;2062;50.694;7.246;2023-12-22T13:48:58;5.27;;;1.50;;
4096;SDS011;2062;50.694;7.246;2023-12-22T13:51:25;6.82;;;1.75;;
4096;SDS011;2062;50.694;7.246;2023-12-22T13:53:52;5.03;;;1.67;;
4096;SDS011;2062;50.694;7.246;2023-12-22T13:56:18;4.93;;;1.80;;
4096;SDS011;2062;50.694;7.246;2023-12-22T13:58:45;7.13;;;1.70;;
4096;SDS011;2062;50.694;7.246;2023-12-22T14:01:13;4.83;;;1.50;;
4096;SDS011;2062;50.694;7.246;2023-12-22T14:03:41;4.55;;;1.50;;
4096;SDS011;2062;50.694;7.246;2023-12-22T14:06:09;4.97;;;1.83;;
4096;SDS011;2062;50.694;7.246;2023-12-22T14:08:37;8.57;;;1.88;;
4096;SDS011;2062;50.694;7.246;2023-12-22T14:11:05;6.68;;;1.90;;
4096;SDS011;2062;50.694;7.246;2023-12-22T14:13:32;6.77;;;1.70;;
4096;SDS011;2062;50.694;7.246;2023-12-22T14:16:00;4.78;;;1.83;;
4096;SDS011;2062;50.694;7.246;2023-12-22T14:18:27;5.80;;;1.80;;
4096;SDS011;2062;50.694;7.246;2023-12-22T14:20:54;5.80;;;1.52;;
4096;SDS011;2062;50.694;7.246;2023-12-22T14:23:22;5.85;;;1.70;;
4096;SDS011;2062;50.694;7.246;2023-12-22T14:25:49;4.87;;;1.80;;
4096;SDS011;2062;50.694;7.246;2023-12-22T14:28:15;8.52;;;1.60;;
4096;SDS011;2062;50.694;7.246;2023-12-22T14:30:42;6.13;;;1.60;;
4096;SDS011;2062;50.694;7.246;2023-12-22T14:33:09;7.30;;;1.80;;
4096;SDS011;2062;50.694;7.246;2023-12-22T14:35:36;5.00;;;1.67;;
4096;SDS011;2062;50.694;7.246;2023-12-22T14:38:03;7.77;;;1.57;;
4096;SDS011;2062;50.694;7.246;2023-12-22T14:40:31;8.55;;;1.77;;
4096;SDS011;2062;50.694;7.246;2023-12-22T14:42:58;9.70;;;1.90;;
4096;SDS011;2062;50.694;7.246;2023-12-22T14:45:26;5.43;;;1.50;;
4096;SDS011;2062;50.694;7.246;2023-12-22T14:47:54;5.35;;;1.90;;
4096;SDS011;2062;50.694;7.246;2023-12-22T14:50:21;8.90;;;1.70;;
4096;SDS011;2062;50.694;7.246;2023-12-22T14:52:48;4.93;;;1.52;;
4096;SDS011;2062;50.694;7.246;2023-12-22T14:55:14;6.57;;;1.77;;
4096;SDS011;2062;50.694;7.246;2023-12-22T14:57:44;7.13;;;1.70;;
4096;SDS011;2062;50.694;7.246;2023-12-22T15:00:11;6.82;;;2.08;;
4096;SDS011;2062;50.694;7.246;2023-12-22T15:02:38;5.97;;;1.50;;
4096;SDS011;2062;50.694;7.246;2023-12-22T15:05:05;8.93;;;1.63;;
4096;SDS011;2062;50.694;7.246;2023-12-22T15:07:32;5.15;;;1.55;;
4096;SDS011;2062;50.694;7.246;2023-12-22T15:09:59;5.05;;;1.60;;
4096;SDS011;2062;50.694;7.246;2023-12-22T15:12:29;6.30;;;1.63;;
4096;SDS011;2062;50.694;7.246;2023-12-22T15:14:59;5.97;;;1.40;;